Time;durP1;ratioP1;P1;durP2;ratioP2;P2;SDS_P1;SDS_P2;PMS_P1;PMS_P2;Temp;Humidity;BMP_temperature;BMP_pressure;BME280_temperature;BME280_humidity;BME280_pressure;Samples;Min_cycle;Max_cycle;Signal;HPM_P1;HPM_P2
2023/12/07 00:01:34;;;;;;;22.00;15.63;;;1.60;99.90;;;;;;7364536;19;20509;-57
2023/12/07 00:04:01;;;;;;;21.52;15.35;;;1.60;99.90;;;;;;7370162;19;20018;-57
2023/12/07 00:06:27;;;;;;;22.30;16.85;;;1.70;99.90;;;;;;7365532;19;20022;-57
2023/12/07 00:08:53;;;;;;;25.67;16.58;;;1.70;99.90;;;;;;7373236;19;20018;-56
2023/12/07 00:11:21;;;;;;;23.48;16.65;;;1.70;99.90;;;;;;7379049;19;20098;-57
2023/12/07 00:13:48;;;;;;;23.02;15.70;;;1.70;99.90;;;;;;7374129;19;20718;-57
2023/12/07 00:16:14;;;;;;;22.17;15.75;;;1.80;99.90;;;;;;7377720;19;20022;-58
2023/12/07 00:18:40;;;;;;;23.50;16.58;;;1.80;99.90;;;;;;7371797;19;20022;-58
2023/12/07 00:21:09;;;;;;;22.85;16.45;;;1.80;99.90;;;;;;7374576;19;20014;-57
2023/12/07 00:23:37;;;;;;;22.95;16.60;;;1.70;99.90;;;;;;7376808;19;20078;-58
2023/12/07 00:26:04;;;;;;;21.50;15.50;;;1.70;99.90;;;;;;7376906;19;20033;-62
2023/12/07 00:28:30;;;;;;;22.35;15.73;;;1.70;99.90;;;;;;7373056;19;20026;-62
2023/12/07 00:30:57;;;;;;;26.65;18.65;;;1.70;99.90;;;;;;7375427;19;20428;-57
2023/12/07 00:33:23;;;;;;;25.38;16.80;;;1.80;99.90;;;;;;7377736;19;20015;-57
2023/12/07 00:35:49;;;;;;;25.10;17.70;;;1.80;99.90;;;;;;7372793;19;20796;-58
2023/12/07 00:38:18;;;;;;;23.42;16.70;;;1.80;99.90;;;;;;7375441;19;20025;-58
2023/12/07 00:40:45;;;;;;;26.77;17.15;;;1.80;99.90;;;;;;7377804;19;20019;-57
2023/12/07 00:43:12;;;;;;;25.10;16.88;;;1.80;99.90;;;;;;7375563;19;20016;-57
2023/12/07 00:45:38;;;;;;;24.77;17.52;;;1.80;99.90;;;;;;7377017;19;20014;-57
2023/12/07 00:48:04;;;;;;;25.40;17.52;;;1.80;99.90;;;;;;7377778;19;20465;-57
2023/12/07 00:50:31;;;;;;;27.83;18.08;;;1.80;99.90;;;;;;7376897;19;20419;-62
2023/12/07 00:52:57;;;;;;;26.30;17.73;;;1.90;99.90;;;;;;7376541;19;20022;-62
2023/12/07 00:55:23;;;;;;;23.65;16.83;;;1.90;99.90;;;;;;7376649;19;20014;-61
2023/12/07 00:57:49;;;;;;;26.02;17.98;;;1.90;99.90;;;;;;7376265;19;20018;-62
2023/12/07 01:00:16;;;;;;;26.20;18.17;;;1.90;99.90;;;;;;7376493;19;20030;-57
2023/12/07 01:02:42;;;;;;;26.42;18.25;;;1.90;99.90;;;;;;7377091;19;20022;-62
2023/12/07 01:05:08;;;;;;;27.98;19.17;;;2.00;99.90;;;;;;7373084;19;20375;-57
2023/12/07 01:07:35;;;;;;;24.50;17.65;;;2.00;99.90;;;;;;7375016;19;20019;-57
2023/12/07 01:10:01;;;;;;;29.05;18.20;;;1.90;99.90;;;;;;7371014;19;20078;-57
2023/12/07 01:12:27;;;;;;;28.20;18.65;;;1.90;99.90;;;;;;7376323;19;20538;-57
2023/12/07 01:14:53;;;;;;;27.10;18.63;;;2.00;99.90;;;;;;7375612;19;20093;-57
2023/12/07 01:17:19;;;;;;;26.67;18.88;;;1.90;99.90;;;;;;7377424;19;20431;-57
2023/12/07 01:19:46;;;;;;;24.65;18.52;;;1.90;99.90;;;;;;7372462;19;20043;-57
2023/12/07 01:22:12;;;;;;;26.13;17.98;;;1.90;99.90;;;;;;7377584;19;20039;-57
2023/12/07 01:24:39;;;;;;;26.63;18.42;;;2.00;99.90;;;;;;7376245;19;20031;-57
2023/12/07 01:27:05;;;;;;;25.48;18.63;;;1.90;99.90;;;;;;7374024;19;20384;-57
2023/12/07 01:29:31;;;;;;;25.15;17.77;;;1.90;99.90;;;;;;7376003;19;20039;-57
2023/12/07 01:31:57;;;;;;;23.98;17.80;;;1.90;99.90;;;;;;7370394;19;20014;-57
2023/12/07 01:34:24;;;;;;;27.67;18.95;;;1.90;99.90;;;;;;7375816;19;20029;-58
2023/12/07 01:36:50;;;;;;;28.55;19.33;;;1.90;99.90;;;;;;7372126;19;20356;-58
2023/12/07 01:39:16;;;;;;;27.50;19.13;;;1.90;99.90;;;;;;7371379;19;20026;-57
2023/12/07 01:41:43;;;;;;;25.00;18.52;;;1.90;99.90;;;;;;7372446;19;20010;-58
2023/12/07 01:44:29;;;;;;;26.25;18.45;;;1.90;99.90;;;;;;7372695;19;20018;-57
2023/12/07 01:46:56;;;;;;;25.50;18.77;;;1.90;99.90;;;;;;7375148;19;20018;-57
2023/12/07 01:49:22;;;;;;;26.65;19.30;;;1.90;99.90;;;;;;7374041;19;20661;-57
2023/12/07 01:51:48;;;;;;;25.95;18.60;;;1.90;99.90;;;;;;7370854;19;20011;-58
2023/12/07 01:54:14;;;;;;;24.67;17.85;;;1.80;99.90;;;;;;7366625;19;20030;-57
2023/12/07 01:56:42;;;;;;;26.15;18.38;;;1.80;99.90;;;;;;7373962;19;20022;-57
2023/12/07 01:59:09;;;;;;;26.42;18.85;;;1.90;99.90;;;;;;7371462;19;20026;-58
2023/12/07 02:01:35;;;;;;;25.45;18.45;;;1.80;99.90;;;;;;7376905;19;20547;-58
2023/12/07 02:04:01;;;;;;;27.60;19.65;;;1.80;99.90;;;;;;7374317;19;20014;-57
2023/12/07 02:06:31;;;;;;;27.52;18.92;;;1.80;99.90;;;;;;7375674;19;20111;-61
2023/12/07 02:08:57;;;;;;;30.20;19.85;;;1.80;99.90;;;;;;7370395;19;20030;-62
2023/12/07 02:11:43;;;;;;;31.80;18.75;;;1.80;99.90;;;;;;7373188;19;20046;-62
2023/12/07 02:14:29;;;;;;;25.85;18.10;;;1.80;99.90;;;;;;7372735;19;20469;-62
2023/12/07 02:17:04;;;;;;;28.38;18.25;;;1.80;99.90;;;;;;7372141;19;20021;-62
2023/12/07 02:20:10;;;;;;;28.85;20.15;;;1.80;99.90;;;;;;7375966;19;20793;-62
2023/12/07 02:22:45;;;;;;;27.58;18.35;;;1.90;99.90;;;;;;7375302;19;20014;-62
2023/12/07 02:25:14;;;;;;;27.30;19.25;;;1.80;99.90;;;;;;7366178;19;20022;-62
2023/12/07 02:27:47;;;;;;;30.00;19.25;;;1.80;99.90;;;;;;7373909;19;20026;-62
2023/12/07 02:30:14;;;;;;;28.08;19.27;;;1.70;99.90;;;;;;7373684;19;20019;-62
2023/12/07 02:32:43;;;;;;;27.95;18.48;;;1.70;99.90;;;;;;7372515;19;20056;-62
2023/12/07 02:35:15;;;;;;;30.52;18.33;;;1.60;99.90;;;;;;7372189;19;20110;-62
2023/12/07 02:37:52;;;;;;;28.15;18.73;;;1.60;99.90;;;;;;7375681;19;20023;-62
2023/12/07 02:40:40;;;;;;;27.42;18.42;;;1.50;99.90;;;;;;7374784;19;20123;-62
2023/12/07 02:43:08;;;;;;;27.98;19.10;;;1.40;99.90;;;;;;7370947;19;20014;-62
2023/12/07 02:45:34;;;;;;;32.35;20.00;;;1.40;99.90;;;;;;7371207;19;20109;-62
2023/12/07 02:48:01;;;;;;;29.85;18.85;;;1.30;99.90;;;;;;7372054;19;20768;-62
2023/12/07 02:50:27;;;;;;;29.92;19.55;;;1.20;99.90;;;;;;7370073;19;20037;-62
2023/12/07 02:52:53;;;;;;;31.27;18.85;;;1.20;99.90;;;;;;7372831;19;20026;-62
2023/12/07 02:55:19;;;;;;;31.67;19.98;;;1.20;99.90;;;;;;7373737;19;20470;-61
2023/12/07 02:57:46;;;;;;;37.00;20.05;;;1.10;99.90;;;;;;7369670;19;20090;-62
2023/12/07 03:00:14;;;;;;;36.38;20.90;;;1.00;99.90;;;;;;7370787;19;20022;-61
2023/12/07 03:02:41;;;;;;;30.40;19.90;;;1.00;99.90;;;;;;7373586;19;20011;-62
2023/12/07 03:05:07;;;;;;;33.60;20.40;;;0.90;99.90;;;;;;7370596;19;20036;-61
2023/12/07 03:07:34;;;;;;;34.50;22.05;;;0.90;99.90;;;;;;7369590;19;20378;-62
2023/12/07 03:10:02;;;;;;;40.05;22.63;;;0.90;99.90;;;;;;7373392;19;20025;-62
2023/12/07 03:12:31;;;;;;;38.07;22.03;;;0.90;99.90;;;;;;7370748;19;20038;-61
2023/12/07 03:14:58;;;;;;;38.90;22.73;;;0.80;99.90;;;;;;7371561;19;20930;-61
2023/12/07 03:17:24;;;;;;;40.72;23.83;;;0.80;99.90;;;;;;7371320;19;20014;-65
2023/12/07 03:19:50;;;;;;;43.60;25.30;;;0.80;99.90;;;;;;7372408;19;20049;-61
2023/12/07 03:22:36;;;;;;;35.92;22.25;;;0.80;99.90;;;;;;7371068;19;20102;-58
2023/12/07 03:25:03;;;;;;;38.42;22.55;;;0.70;99.90;;;;;;7372647;19;20018;-57
2023/12/07 03:27:29;;;;;;;39.22;22.80;;;0.60;99.90;;;;;;7370081;19;20014;-61
2023/12/07 03:29:55;;;;;;;38.60;23.42;;;0.60;99.90;;;;;;7370843;19;20019;-61
2023/12/07 03:32:22;;;;;;;46.42;26.60;;;0.60;99.90;;;;;;7368617;19;20014;-62
2023/12/07 03:34:48;;;;;;;49.50;25.35;;;0.60;99.90;;;;;;7372056;19;20055;-62
2023/12/07 03:37:15;;;;;;;43.80;26.75;;;0.60;99.90;;;;;;7369954;19;20022;-62
2023/12/07 03:39:43;;;;;;;47.47;26.05;;;0.60;99.90;;;;;;7371533;19;20019;-62
2023/12/07 03:42:10;;;;;;;47.53;25.73;;;0.60;99.90;;;;;;7371531;19;20750;-61
2023/12/07 03:44:37;;;;;;;50.75;28.60;;;0.60;99.90;;;;;;7379594;19;20038;-62
2023/12/07 03:47:03;;;;;;;57.72;27.88;;;0.60;99.90;;;;;;7376347;19;20093;-63
2023/12/07 03:49:30;;;;;;;46.72;25.42;;;0.60;99.90;;;;;;7375045;19;20031;-62
2023/12/07 03:51:56;;;;;;;50.08;26.95;;;0.50;99.90;;;;;;7379961;19;20022;-62
2023/12/07 03:54:22;;;;;;;53.40;27.38;;;0.40;99.90;;;;;;7379832;19;20561;-62
2023/12/07 03:56:48;;;;;;;50.45;27.55;;;0.40;99.90;;;;;;7379323;19;20025;-57
2023/12/07 03:59:15;;;;;;;53.28;28.60;;;0.40;99.90;;;;;;7375219;19;20462;-58
2023/12/07 04:01:42;;;;;;;54.40;28.83;;;0.40;99.90;;;;;;7373972;19;20015;-57
2023/12/07 04:04:08;;;;;;;52.95;28.27;;;0.30;99.90;;;;;;7377865;19;20051;-62
2023/12/07 04:06:34;;;;;;;52.65;28.77;;;0.30;99.90;;;;;;7377892;19;20018;-62
2023/12/07 04:09:01;;;;;;;59.33;30.15;;;0.30;99.90;;;;;;7377486;19;20928;-62
2023/12/07 04:11:27;;;;;;;56.45;30.05;;;0.20;99.90;;;;;;7374417;19;20022;-62
2023/12/07 04:13:53;;;;;;;63.35;32.53;;;0.30;99.90;;;;;;7375344;19;20479;-57
2023/12/07 04:16:19;;;;;;;60.53;30.15;;;0.30;99.90;;;;;;7373753;19;20037;-62
2023/12/07 04:18:46;;;;;;;66.22;31.73;;;0.30;99.90;;;;;;7374437;19;20060;-62
2023/12/07 04:21:12;;;;;;;61.30;31.73;;;0.30;99.90;;;;;;7374505;19;20119;-62
2023/12/07 04:23:40;;;;;;;66.57;30.85;;;0.30;99.90;;;;;;7377128;19;20607;-56
2023/12/07 04:26:06;;;;;;;61.30;31.20;;;0.40;99.90;;;;;;7375907;19;20839;-57
2023/12/07 04:28:33;;;;;;;60.20;31.90;;;0.30;99.90;;;;;;7376686;19;20085;-57
2023/12/07 04:31:19;;;;;;;55.65;30.05;;;0.30;99.90;;;;;;7372157;19;20486;-57
2023/12/07 04:33:45;;;;;;;65.13;32.83;;;0.30;99.90;;;;;;7377343;19;20054;-57
2023/12/07 04:36:14;;;;;;;64.10;32.70;;;0.30;99.90;;;;;;7376157;19;20029;-57
2023/12/07 04:38:40;;;;;;;67.85;33.72;;;0.30;99.90;;;;;;7374702;19;20056;-62
2023/12/07 04:41:07;;;;;;;66.07;32.67;;;0.20;99.90;;;;;;7374777;19;20465;-57
2023/12/07 04:43:34;;;;;;;64.25;33.08;;;0.20;99.90;;;;;;7377837;19;20038;-62
2023/12/07 04:46:01;;;;;;;56.05;29.92;;;0.30;99.90;;;;;;7376852;19;20015;-57
2023/12/07 04:48:27;;;;;;;67.88;32.75;;;0.20;99.90;;;;;;7376131;19;20026;-57
2023/12/07 04:50:53;;;;;;;62.95;33.22;;;0.20;99.90;;;;;;7377600;19;20014;-57
2023/12/07 04:53:19;;;;;;;74.88;33.65;;;0.20;99.90;;;;;;7374397;19;20029;-57
2023/12/07 04:55:49;;;;;;;64.07;31.10;;;0.20;99.90;;;;;;7375530;19;20019;-63
2023/12/07 04:58:16;;;;;;;59.75;30.33;;;0.20;99.90;;;;;;7371791;19;20018;-57
2023/12/07 05:00:42;;;;;;;68.15;34.00;;;0.20;99.90;;;;;;7375391;19;20015;-57
2023/12/07 05:03:09;;;;;;;65.07;32.95;;;0.10;99.90;;;;;;7376360;19;20018;-62
2023/12/07 05:05:36;;;;;;;62.40;32.05;;;0.10;99.90;;;;;;7368891;19;20014;-62
2023/12/07 05:08:02;;;;;;;65.30;33.95;;;0.20;99.90;;;;;;7370215;19;20790;-63
2023/12/07 05:10:29;;;;;;;57.13;31.13;;;0.10;99.90;;;;;;7368891;19;20030;-62
2023/12/07 05:12:56;;;;;;;57.85;31.98;;;0.10;99.90;;;;;;7375127;19;20023;-62
2023/12/07 05:15:23;;;;;;;61.45;32.03;;;0.20;99.90;;;;;;7373229;19;20498;-62
2023/12/07 05:17:49;;;;;;;57.75;31.55;;;0.10;99.90;;;;;;7376780;19;20034;-62
2023/12/07 05:20:15;;;;;;;67.13;32.53;;;0.10;99.90;;;;;;7369868;19;20026;-57
2023/12/07 05:22:44;;;;;;;61.90;32.38;;;0.10;99.90;;;;;;7374802;19;20627;-62
2023/12/07 05:25:10;;;;;;;55.22;30.75;;;0.10;99.90;;;;;;7373935;19;20766;-62
2023/12/07 05:27:37;;;;;;;54.30;29.60;;;0.10;99.90;;;;;;7373305;19;20019;-62
2023/12/07 05:30:03;;;;;;;60.75;31.33;;;0.00;99.90;;;;;;7369054;19;20022;-57
2023/12/07 05:32:30;;;;;;;51.83;30.20;;;0.10;99.90;;;;;;7375260;19;20853;-61
2023/12/07 05:34:56;;;;;;;58.30;32.22;;;0.10;99.90;;;;;;7369536;19;20077;-61
2023/12/07 05:37:23;;;;;;;64.68;31.67;;;0.10;99.90;;;;;;7377230;19;20025;-62
2023/12/07 05:39:52;;;;;;;56.78;29.08;;;0.10;99.90;;;;;;7372539;19;20027;-62
2023/12/07 05:42:18;;;;;;;63.47;31.20;;;0.10;99.90;;;;;;7371634;19;20018;-67
2023/12/07 05:44:45;;;;;;;58.53;31.85;;;0.10;99.90;;;;;;7372078;19;20019;-63
2023/12/07 05:47:12;;;;;;;61.55;32.42;;;0.00;99.90;;;;;;7373314;19;20014;-60
2023/12/07 05:49:38;;;;;;;62.35;31.60;;;0.00;99.90;;;;;;7376584;19;20011;-59
2023/12/07 05:52:04;;;;;;;71.18;35.08;;;0.00;99.90;;;;;;7373370;19;20093;-58
2023/12/07 05:54:32;;;;;;;67.95;34.30;;;0.00;99.90;;;;;;7373367;19;20019;-58
2023/12/07 05:56:58;;;;;;;66.32;30.90;;;0.10;99.90;;;;;;7369880;19;20475;-58
2023/12/07 05:59:28;;;;;;;59.88;33.38;;;0.00;99.90;;;;;;7374206;19;20014;-60
2023/12/07 06:01:54;;;;;;;59.35;31.70;;;0.00;99.90;;;;;;7375988;19;20023;-58
2023/12/07 06:04:20;;;;;;;58.17;34.03;;;0.00;99.90;;;;;;7372223;19;20090;-59
2023/12/07 06:06:47;;;;;;;66.40;34.10;;;0.00;99.90;;;;;;7370042;19;20022;-58
2023/12/07 06:09:14;;;;;;;64.25;33.03;;;0.00;99.90;;;;;;7368509;19;20029;-58
2023/12/07 06:11:40;;;;;;;63.85;33.72;;;0.00;99.90;;;;;;7371977;19;20143;-58
2023/12/07 06:14:07;;;;;;;64.57;33.85;;;-0.10;99.90;;;;;;7374351;19;20110;-57
2023/12/07 06:16:33;;;;;;;69.93;34.67;;;0.00;99.90;;;;;;7373735;19;20094;-59
2023/12/07 06:19:19;;;;;;;61.53;33.65;;;-0.10;99.90;;;;;;7370514;19;20029;-58
2023/12/07 06:21:46;;;;;;;61.65;34.28;;;-0.10;99.90;;;;;;7373441;19;20026;-59
2023/12/07 06:24:14;;;;;;;66.07;35.85;;;-0.10;99.90;;;;;;7370469;19;20015;-59
2023/12/07 06:26:40;;;;;;;62.10;32.45;;;0.00;99.90;;;;;;7373830;19;20490;-59
2023/12/07 06:29:07;;;;;;;61.83;34.08;;;-0.10;99.90;;;;;;7373661;19;20092;-59
2023/12/07 06:31:33;;;;;;;61.33;34.53;;;-0.10;99.90;;;;;;7372287;19;20045;-59
2023/12/07 06:34:00;;;;;;;67.88;38.08;;;-0.10;99.90;;;;;;7374588;19;20027;-59
2023/12/07 06:36:26;;;;;;;65.25;34.90;;;-0.20;99.90;;;;;;7374906;19;20022;-58
2023/12/07 06:38:54;;;;;;;56.65;32.63;;;-0.20;99.90;;;;;;7373679;19;20439;-58
2023/12/07 06:41:21;;;;;;;62.95;34.03;;;-0.30;99.90;;;;;;7368694;19;20018;-59
2023/12/07 06:43:47;;;;;;;58.05;33.63;;;-0.30;99.90;;;;;;7373587;19;20022;-60
2023/12/07 06:46:13;;;;;;;59.20;33.47;;;-0.30;99.90;;;;;;7372759;19;20018;-59
2023/12/07 06:48:44;;;;;;;51.15;30.85;;;-0.30;99.90;;;;;;7373881;19;20051;-59
2023/12/07 06:51:14;;;;;;;48.63;30.25;;;-0.30;99.90;;;;;;7367703;19;20032;-64
2023/12/07 06:53:41;;;;;;;44.33;28.02;;;-0.40;99.90;;;;;;7372371;19;20037;-63
2023/12/07 06:56:08;;;;;;;63.83;34.42;;;-0.30;99.90;;;;;;7370992;19;20022;-55
2023/12/07 06:58:35;;;;;;;57.80;32.95;;;-0.30;99.90;;;;;;7372330;19;20018;-60
2023/12/07 07:01:01;;;;;;;56.97;32.50;;;-0.20;99.90;;;;;;7367140;19;20022;-63
2023/12/07 07:03:27;;;;;;;55.65;33.85;;;-0.30;99.90;;;;;;7372814;19;20018;-58
2023/12/07 07:05:54;;;;;;;57.42;34.75;;;-0.30;99.90;;;;;;7367859;19;20053;-58
2023/12/07 07:08:21;;;;;;;57.55;33.25;;;-0.30;99.90;;;;;;7367820;19;20089;-58
2023/12/07 07:10:47;;;;;;;51.08;30.60;;;-0.30;99.90;;;;;;7372777;19;20014;-62
2023/12/07 07:13:15;;;;;;;49.80;32.90;;;-0.30;99.90;;;;;;7368616;19;20034;-62
2023/12/07 07:15:43;;;;;;;54.60;33.13;;;-0.40;99.90;;;;;;7372263;19;20470;-62
2023/12/07 07:18:09;;;;;;;48.65;31.83;;;-0.40;99.90;;;;;;7369065;19;20025;-58
2023/12/07 07:20:36;;;;;;;51.13;31.75;;;-0.40;99.90;;;;;;7371536;19;20014;-57
2023/12/07 07:23:02;;;;;;;57.05;33.47;;;-0.40;99.90;;;;;;7367561;19;20026;-58
2023/12/07 07:25:28;;;;;;;50.47;33.78;;;-0.40;99.90;;;;;;7373013;19;20019;-57
2023/12/07 07:27:54;;;;;;;51.58;32.90;;;-0.50;99.90;;;;;;7366357;19;20027;-57
2023/12/07 07:30:21;;;;;;;49.83;30.73;;;-0.50;99.90;;;;;;7370017;19;20014;-59
2023/12/07 07:32:48;;;;;;;47.80;28.98;;;-0.40;99.90;;;;;;7371159;19;20474;-58
2023/12/07 07:35:15;;;;;;;48.63;30.35;;;-0.50;99.90;;;;;;7364866;19;20806;-58
2023/12/07 07:38:01;;;;;;;46.20;28.85;;;-0.40;99.90;;;;;;7366698;19;20035;-57
2023/12/07 07:40:27;;;;;;;45.95;28.48;;;-0.50;99.90;;;;;;7371885;19;20038;-58
2023/12/07 07:42:53;;;;;;;41.03;26.67;;;-0.50;99.90;;;;;;7367935;19;20047;-58
2023/12/07 07:45:20;;;;;;;45.90;29.70;;;-0.50;99.90;;;;;;7369499;19;20018;-57
2023/12/07 07:47:46;;;;;;;46.80;29.83;;;-0.50;99.90;;;;;;7370180;19;20025;-59
2023/12/07 07:50:14;;;;;;;43.20;28.13;;;-0.50;99.90;;;;;;7366176;19;20045;-58
2023/12/07 07:52:40;;;;;;;46.15;29.35;;;-0.50;99.90;;;;;;7371129;19;20010;-59
2023/12/07 07:55:07;;;;;;;48.88;28.52;;;-0.50;99.90;;;;;;7363512;19;20029;-58
2023/12/07 07:57:33;;;;;;;47.70;29.10;;;-0.50;99.90;;;;;;7369951;19;20014;-58
2023/12/07 07:59:59;;;;;;;43.67;28.15;;;-0.50;99.90;;;;;;7370463;19;20014;-58
2023/12/07 08:02:25;;;;;;;47.45;29.38;;;-0.50;99.90;;;;;;7364558;19;20026;-58
2023/12/07 08:04:52;;;;;;;84.00;53.03;;;-0.40;99.90;;;;;;7366132;19;20044;-55
2023/12/07 08:07:18;;;;;;;131.77;88.72;;;-0.30;99.90;;;;;;7370257;19;20048;-53
2023/12/07 08:09:44;;;;;;;62.20;34.00;;;-0.10;99.90;;;;;;7367919;19;20371;-62
2023/12/07 08:12:11;;;;;;;56.08;31.85;;;0.20;99.90;;;;;;7364809;19;20018;-57
2023/12/07 08:14:38;;;;;;;52.65;31.60;;;0.20;99.90;;;;;;7367067;19;21387;-57
2023/12/07 08:17:04;;;;;;;50.72;30.38;;;0.20;99.90;;;;;;7366898;19;20478;-62
2023/12/07 08:19:30;;;;;;;55.60;32.63;;;0.20;99.90;;;;;;7370466;19;20816;-62
2023/12/07 08:21:57;;;;;;;56.38;31.63;;;0.30;99.90;;;;;;7364885;19;20109;-63
2023/12/07 08:24:25;;;;;;;52.22;31.23;;;0.50;99.90;;;;;;7368535;19;20022;-62
2023/12/07 08:26:51;;;;;;;50.50;31.42;;;0.70;99.90;;;;;;7365850;19;20018;-62
2023/12/07 08:29:17;;;;;;;52.83;30.83;;;0.80;99.90;;;;;;7366699;19;20350;-62
2023/12/07 08:31:44;;;;;;;49.35;30.08;;;0.90;99.90;;;;;;7372756;19;20018;-62
2023/12/07 08:34:13;;;;;;;54.80;32.40;;;0.90;99.90;;;;;;7373600;19;20014;-62
2023/12/07 08:36:39;;;;;;;49.22;30.65;;;1.00;99.90;;;;;;7374401;19;20777;-61
2023/12/07 08:39:09;;;;;;;59.90;35.05;;;1.30;99.90;;;;;;7372668;19;20093;-61
2023/12/07 08:41:39;;;;;;;55.42;33.25;;;1.50;99.90;;;;;;7370958;19;20015;-63
2023/12/07 08:44:05;;;;;;;56.38;38.50;;;1.50;99.90;;;;;;7370572;19;20018;-61
2023/12/07 08:46:31;;;;;;;45.95;30.85;;;1.60;99.90;;;;;;7374005;19;20039;-61
2023/12/07 08:49:18;;;;;;;42.17;29.67;;;1.60;99.90;;;;;;7372522;19;20035;-61
2023/12/07 08:51:45;;;;;;;45.45;30.65;;;1.80;99.90;;;;;;7372204;19;20014;-65
2023/12/07 08:54:31;;;;;;;41.33;28.52;;;1.70;99.90;;;;;;7374521;19;20043;-62
2023/12/07 08:56:58;;;;;;;45.90;32.03;;;1.70;99.90;;;;;;7374793;19;20643;-65
2023/12/07 08:59:24;;;;;;;39.40;30.02;;;1.80;99.90;;;;;;7371117;19;20636;-65
2023/12/07 09:01:50;;;;;;;45.85;30.00;;;1.80;99.90;;;;;;7369659;19;20019;-66
2023/12/07 09:04:17;;;;;;;37.70;29.00;;;1.90;99.90;;;;;;7376657;19;20046;-65
2023/12/07 09:06:43;;;;;;;38.08;28.33;;;1.90;99.90;;;;;;7371674;19;20014;-61
2023/12/07 09:09:11;;;;;;;41.63;29.48;;;1.90;99.90;;;;;;7373129;19;20074;-60
2023/12/07 09:11:37;;;;;;;42.05;30.38;;;1.80;99.90;;;;;;7373290;19;20442;-61
2023/12/07 09:14:04;;;;;;;42.85;29.23;;;1.80;99.90;;;;;;7375666;19;20031;-61
2023/12/07 09:16:30;;;;;;;64.55;30.98;;;1.80;99.90;;;;;;7374628;19;20015;-61
2023/12/07 09:18:56;;;;;;;109.70;34.53;;;1.80;99.90;;;;;;7374508;19;20022;-61
2023/12/07 09:21:22;;;;;;;133.82;36.13;;;1.80;99.90;;;;;;7373398;19;20670;-61
2023/12/07 09:23:48;;;;;;;133.00;33.88;;;1.70;99.90;;;;;;7376337;19;20023;-62
2023/12/07 09:26:15;;;;;;;208.65;40.08;;;1.50;99.90;;;;;;7368665;19;20014;-61
2023/12/07 09:28:44;;;;;;;143.18;34.05;;;1.60;99.90;;;;;;7374528;19;20037;-61
2023/12/07 09:31:10;;;;;;;169.27;53.20;;;1.60;99.90;;;;;;7367061;19;20103;-61
2023/12/07 09:33:37;;;;;;;181.13;44.80;;;1.50;99.90;;;;;;7371137;19;20047;-61
2023/12/07 09:36:07;;;;;;;154.77;37.88;;;1.40;99.90;;;;;;7371020;19;20025;-56
2023/12/07 09:38:36;;;;;;;209.02;40.15;;;1.40;99.90;;;;;;7370085;19;20035;-61
2023/12/07 09:41:03;;;;;;;151.35;39.22;;;1.50;99.90;;;;;;7371621;19;20034;-61
2023/12/07 09:43:30;;;;;;;108.72;36.28;;;1.60;99.90;;;;;;7367238;19;20039;-62
2023/12/07 09:45:58;;;;;;;71.85;28.25;;;1.70;99.90;;;;;;7370316;19;20022;-63
2023/12/07 09:48:24;;;;;;;90.78;26.33;;;1.50;99.90;;;;;;7370469;19;20047;-63
2023/12/07 09:50:52;;;;;;;109.35;26.33;;;1.60;99.90;;;;;;7370772;19;20018;-60
2023/12/07 09:53:19;;;;;;;110.18;27.52;;;1.60;99.90;;;;;;7370076;19;20015;-61
2023/12/07 09:55:46;;;;;;;111.40;24.10;;;1.60;99.90;;;;;;7370783;19;20021;-53
2023/12/07 09:58:13;;;;;;;109.93;26.75;;;1.60;99.90;;;;;;7366243;19;20587;-56
2023/12/07 10:00:39;;;;;;;66.40;23.70;;;1.60;99.90;;;;;;7373082;19;20018;-60
2023/12/07 10:03:09;;;;;;;151.13;28.58;;;1.60;99.90;;;;;;7372560;19;20025;-60
2023/12/07 10:05:57;;;;;;;128.23;28.08;;;1.50;99.90;;;;;;7375821;19;20148;-61
2023/12/07 10:08:31;;;;;;;103.43;23.95;;;1.50;99.90;;;;;;7368121;19;20018;-61
2023/12/07 10:11:08;;;;;;;85.47;24.65;;;1.50;99.90;;;;;;7370871;19;20022;-61
2023/12/07 10:13:35;;;;;;;73.40;23.20;;;1.50;99.90;;;;;;7370873;19;20755;-61
2023/12/07 10:16:13;;;;;;;91.82;25.98;;;1.50;99.90;;;;;;7375034;19;20039;-60
2023/12/07 10:18:42;;;;;;;92.13;27.35;;;1.60;99.90;;;;;;7370718;19;20030;-55
2023/12/07 10:21:09;;;;;;;143.35;78.70;;;1.60;99.90;;;;;;7371029;19;20651;-55
2023/12/07 10:23:40;;;;;;;126.70;41.40;;;1.60;99.90;;;;;;7370776;19;20053;-60
2023/12/07 10:26:11;;;;;;;110.35;36.97;;;1.60;99.90;;;;;;7370743;19;20018;-55
2023/12/07 10:28:39;;;;;;;96.63;24.50;;;1.70;99.90;;;;;;7368197;19;20090;-60
2023/12/07 10:31:09;;;;;;;140.13;54.85;;;1.60;99.90;;;;;;7366800;19;20006;-60
2023/12/07 10:33:36;;;;;;;123.30;34.95;;;1.80;99.90;;;;;;7370256;19;20039;-60
2023/12/07 10:36:04;;;;;;;99.55;30.27;;;1.90;99.90;;;;;;7369343;19;20031;-63
2023/12/07 10:38:32;;;;;;;60.63;26.17;;;1.80;99.90;;;;;;7370284;19;20022;-63
2023/12/07 10:41:12;;;;;;;63.10;27.65;;;1.90;99.90;;;;;;7369578;19;20054;-63
2023/12/07 10:43:43;;;;;;;77.95;25.50;;;2.00;99.90;;;;;;7372024;19;20042;-62
2023/12/07 10:46:09;;;;;;;80.05;24.20;;;2.00;99.90;;;;;;7369900;19;20644;-64
2023/12/07 10:48:36;;;;;;;101.47;24.75;;;2.00;99.90;;;;;;7372989;19;20022;-63
2023/12/07 10:51:11;;;;;;;86.43;25.60;;;1.90;99.90;;;;;;7372533;19;20033;-59
2023/12/07 10:53:43;;;;;;;119.57;26.33;;;2.00;99.90;;;;;;7369366;19;20010;-60
2023/12/07 10:56:32;;;;;;;89.28;30.83;;;1.90;99.90;;;;;;7371981;19;20022;-59
2023/12/07 10:58:59;;;;;;;224.50;100.13;;;2.00;99.90;;;;;;7369057;19;20035;-63
2023/12/07 11:01:26;;;;;;;146.13;33.78;;;2.00;99.90;;;;;;7367990;19;20018;-60
2023/12/07 11:03:54;;;;;;;108.53;32.10;;;1.90;99.90;;;;;;7366144;19;20478;-60
2023/12/07 11:06:20;;;;;;;122.55;46.55;;;1.90;99.90;;;;;;7372635;19;20038;-60
2023/12/07 11:08:56;;;;;;;115.55;33.58;;;1.90;99.90;;;;;;7367429;19;20018;-60
2023/12/07 11:11:52;;;;;;;102.43;29.58;;;1.80;99.90;;;;;;7370068;19;20395;-60
2023/12/07 11:14:19;;;;;;;96.63;30.90;;;1.90;99.90;;;;;;7370714;19;20014;-60
2023/12/07 11:16:47;;;;;;;138.05;31.85;;;1.90;99.90;;;;;;7365423;19;20617;-60
2023/12/07 11:19:39;;;;;;;139.13;32.15;;;1.90;99.90;;;;;;7366931;19;20021;-60
2023/12/07 11:22:07;;;;;;;124.07;29.70;;;1.80;99.90;;;;;;7362948;19;20020;-62
2023/12/07 11:24:36;;;;;;;80.25;29.90;;;1.80;99.90;;;;;;7368187;19;20068;-61
2023/12/07 11:27:03;;;;;;;154.32;35.60;;;1.90;99.90;;;;;;7367056;19;20019;-61
2023/12/07 11:29:30;;;;;;;100.05;29.45;;;1.80;99.90;;;;;;7367570;19;20017;-60
2023/12/07 11:32:06;;;;;;;117.32;32.00;;;1.80;99.90;;;;;;7366753;19;20026;-60
2023/12/07 11:34:40;;;;;;;99.05;30.80;;;1.80;99.90;;;;;;7365892;19;20022;-60
2023/12/07 11:37:08;;;;;;;118.78;34.13;;;1.80;99.90;;;;;;7368852;19;20015;-60
2023/12/07 11:39:45;;;;;;;119.50;34.50;;;1.90;99.90;;;;;;7370038;19;20023;-60
2023/12/07 11:42:19;;;;;;;114.32;32.47;;;1.90;99.90;;;;;;7368024;19;20021;-60
2023/12/07 11:44:49;;;;;;;119.65;34.22;;;1.90;99.90;;;;;;7365467;19;20042;-60
2023/12/07 11:47:17;;;;;;;122.75;37.53;;;2.00;99.90;;;;;;7368681;19;20018;-60
2023/12/07 11:49:44;;;;;;;95.28;35.97;;;1.90;99.90;;;;;;7368229;19;20010;-60
2023/12/07 11:52:18;;;;;;;62.13;33.25;;;1.90;99.90;;;;;;7370227;19;20082;-60
2023/12/07 11:54:46;;;;;;;117.05;40.08;;;2.00;99.90;;;;;;7368963;19;20080;-61
2023/12/07 11:57:17;;;;;;;78.90;36.65;;;2.00;99.90;;;;;;7364702;19;20026;-62
2023/12/07 11:59:49;;;;;;;77.68;34.72;;;2.10;99.90;;;;;;7370137;19;20738;-62
2023/12/07 12:02:15;;;;;;;78.32;31.65;;;1.90;99.90;;;;;;7366977;19;20477;-62
2023/12/07 12:04:42;;;;;;;95.18;33.83;;;1.80;99.90;;;;;;7373217;19;20121;-62
2023/12/07 12:07:30;;;;;;;88.65;30.77;;;1.70;99.90;;;;;;7375433;19;20014;-62
2023/12/07 12:09:56;;;;;;;79.00;32.45;;;1.70;99.90;;;;;;7373950;19;20019;-62
2023/12/07 12:12:23;;;;;;;92.15;32.10;;;1.60;99.90;;;;;;7377890;19;20798;-61
2023/12/07 12:14:49;;;;;;;83.22;33.63;;;1.50;99.90;;;;;;7375989;19;20504;-61
2023/12/07 12:17:16;;;;;;;136.32;36.75;;;1.50;99.90;;;;;;7373007;19;20023;-61
2023/12/07 12:19:42;;;;;;;77.75;30.90;;;1.50;99.90;;;;;;7377557;19;20392;-61
2023/12/07 12:22:09;;;;;;;101.25;34.00;;;1.60;99.90;;;;;;7378383;19;20373;-61
2023/12/07 12:24:36;;;;;;;118.50;33.05;;;1.50;99.90;;;;;;7374363;19;20022;-61
2023/12/07 12:27:04;;;;;;;104.18;36.20;;;1.60;99.90;;;;;;7376034;19;20022;-62
2023/12/07 12:29:31;;;;;;;110.93;34.83;;;1.50;99.90;;;;;;7373394;19;20039;-61
2023/12/07 12:32:17;;;;;;;98.57;35.67;;;1.50;99.90;;;;;;7372927;19;20597;-62
2023/12/07 12:34:43;;;;;;;134.13;41.03;;;1.50;99.90;;;;;;7372464;19;20037;-62
2023/12/07 12:37:09;;;;;;;95.90;36.80;;;1.50;99.90;;;;;;7377681;19;20615;-61
2023/12/07 12:39:36;;;;;;;102.55;37.78;;;1.50;99.90;;;;;;7372708;19;20018;-61